Time;durP1;ratioP1;P1;durP2;ratioP2;P2;SDS_P1;SDS_P2;PMS_P1;PMS_P2;Temp;Humidity;BMP_temperature;BMP_pressure;BME280_temperature;BME280_humidity;BME280_pressure;Samples;Min_cycle;Max_cycle;Signal;HPM_P1;HPM_P2
2022/02/23 00:00:02;;;;;;;62.75;59.85;;;;;;;8.38;65.43;100610.59;690449;28;44040;-71
2022/02/23 00:00:25;;;;;;;55.95;53.35;;;;;;;8.36;65.46;100614.50;690560;28;32787;-71
2022/02/23 00:00:46;;;;;;;70.25;66.97;;;;;;;8.36;65.44;100615.31;691048;28;22437;-71
2022/02/23 00:01:08;;;;;;;65.78;62.67;;;;;;;8.35;65.52;100618.19;691219;28;22387;-72
2022/02/23 00:01:30;;;;;;;55.63;53.10;;;;;;;8.34;65.34;100627.25;689135;28;46529;-71
2022/02/23 00:01:51;;;;;;;63.38;60.42;;;;;;;8.34;65.61;100630.81;690154;28;45227;-72
2022/02/23 00:02:12;;;;;;;68.18;64.97;;;;;;;8.33;65.48;100617.50;690815;28;22413;-71
2022/02/23 00:02:34;;;;;;;60.58;57.78;;;;;;;8.36;65.62;100617.19;690808;28;21277;-71
2022/02/23 00:02:55;;;;;;;61.40;58.53;;;;;;;8.33;65.64;100610.28;690238;28;45238;-71
2022/02/23 00:03:16;;;;;;;75.93;72.40;;;;;;;8.35;65.70;100624.41;691936;28;957;-72
2022/02/23 00:03:38;;;;;;;66.78;63.67;;;;;;;8.37;65.53;100635.00;691225;28;23417;-72
2022/02/23 00:04:00;;;;;;;58.92;56.20;;;;;;;8.36;65.37;100630.63;691066;28;21240;-71
2022/02/23 00:04:21;;;;;;;69.20;66.03;;;;;;;8.36;65.61;100636.03;689417;28;69296;-72
2022/02/23 00:04:42;;;;;;;73.20;69.80;;;;;;;8.38;65.28;100626.75;690771;28;23891;-71
2022/02/23 00:05:05;;;;;;;62.88;59.92;;;;;;;8.36;65.49;100630.63;687558;28;22384;-71
2022/02/23 00:05:26;;;;;;;60.05;57.30;;;;;;;8.34;65.12;100628.09;686919;28;69409;-71
2022/02/23 00:05:47;;;;;;;70.05;66.78;;;;;;;8.29;65.47;100628.59;687783;28;21551;-71
2022/02/23 00:06:09;;;;;;;63.10;60.17;;;;;;;8.30;65.51;100632.97;688132;28;22362;-72
2022/02/23 00:06:30;;;;;;;59.47;56.72;;;;;;;8.28;65.41;100629.59;686399;28;44421;-72
2022/02/23 00:06:52;;;;;;;74.47;71.00;;;;;;;8.27;65.61;100635.97;688778;28;22391;-71
2022/02/23 00:07:14;;;;;;;70.18;66.90;;;;;;;8.26;65.40;100637.00;690448;28;46333;-71
2022/02/23 00:07:35;;;;;;;61.25;58.42;;;;;;;8.25;65.44;100638.00;691278;28;22414;-72
2022/02/23 00:07:56;;;;;;;63.47;60.58;;;;;;;8.24;65.41;100636.31;690613;28;46311;-71
2022/02/23 00:08:17;;;;;;;75.15;71.65;;;;;;;8.28;65.67;100637.66;691206;28;22463;-72
2022/02/23 00:08:39;;;;;;;65.63;62.55;;;;;;;8.32;65.62;100634.66;690798;28;21545;-72
2022/02/23 00:09:02;;;;;;;56.75;54.13;;;;;;;8.30;65.31;100651.78;687112;28;43132;-72
2022/02/23 00:09:23;;;;;;;61.55;58.67;;;;;;;8.29;65.23;100633.97;687403;28;44330;-72
2022/02/23 00:09:44;;;;;;;67.55;64.38;;;;;;;8.27;65.11;100627.91;688212;28;21226;-72
2022/02/23 00:10:07;;;;;;;60.40;57.57;;;;;;;8.26;65.16;100641.53;688148;28;22341;-71
2022/02/23 00:10:28;;;;;;;60.20;57.40;;;;;;;8.35;64.94;100640.53;685696;28;90131;-71
2022/02/23 00:10:49;;;;;;;68.90;65.63;;;;;;;8.34;65.01;100641.56;688766;28;23474;-71
2022/02/23 00:11:10;;;;;;;64.38;61.35;;;;;;;8.31;64.61;100639.19;690846;28;22378;-71
2022/02/23 00:11:32;;;;;;;56.95;54.35;;;;;;;8.31;64.71;100647.28;690323;28;21555;-72
2022/02/23 00:11:54;;;;;;;69.38;66.18;;;;;;;8.29;64.88;100641.19;690112;28;44398;-71
2022/02/23 00:12:15;;;;;;;72.82;69.43;;;;;;;8.27;64.89;100645.91;690850;28;22372;-71
2022/02/23 00:12:37;;;;;;;64.45;61.45;;;;;;;8.29;65.15;100633.13;690178;28;46420;-71
2022/02/23 00:12:59;;;;;;;70.75;67.45;;;;;;;8.33;64.81;100653.31;691318;28;22415;-71
2022/02/23 00:13:20;;;;;;;65.72;62.67;;;;;;;8.29;64.65;100633.97;686533;28;44373;-71
2022/02/23 00:13:41;;;;;;;58.45;55.78;;;;;;;8.32;64.84;100631.97;687269;28;22249;-71
2022/02/23 00:14:02;;;;;;;68.95;65.72;;;;;;;8.34;64.76;100657.72;686945;28;44043;-72
2022/02/23 00:14:24;;;;;;;72.05;68.65;;;;;;;8.29;64.79;100644.75;691213;28;22205;-71
2022/02/23 00:14:45;;;;;;;64.70;61.67;;;;;;;8.30;65.13;100646.41;690262;28;46307;-71
2022/02/23 00:15:06;;;;;;;63.08;60.15;;;;;;;8.38;64.97;100659.03;690756;28;22411;-71
2022/02/23 00:15:28;;;;;;;76.25;72.68;;;;;;;8.42;64.40;100655.03;690928;28;22405;-72
2022/02/23 00:15:49;;;;;;;74.57;71.07;;;;;;;8.37;64.46;100654.69;686834;28;45262;-71
2022/02/23 00:16:11;;;;;;;68.63;65.35;;;;;;;8.35;64.55;100653.16;687608;28;23356;-71
2022/02/23 00:16:32;;;;;;;64.78;61.75;;;;;;;8.30;64.53;100649.09;687630;28;23465;-72
2022/02/23 00:16:54;;;;;;;78.35;74.68;;;;;;;8.26;64.39;100660.34;688132;28;22370;-71
2022/02/23 00:17:16;;;;;;;74.90;71.38;;;;;;;8.23;64.48;100649.94;687517;28;44401;-71
2022/02/23 00:17:37;;;;;;;66.35;63.22;;;;;;;8.23;64.80;100652.66;687014;28;69823;-71
2022/02/23 00:17:58;;;;;;;70.53;67.22;;;;;;;8.24;64.76;100655.13;690528;28;22408;-71
2022/02/23 00:18:19;;;;;;;68.68;65.47;;;;;;;8.23;64.88;100650.78;686911;28;21821;-71
2022/02/23 00:18:41;;;;;;;65.07;62.08;;;;;;;8.23;64.94;100645.41;687235;28;22271;-72
2022/02/23 00:19:02;;;;;;;77.35;73.70;;;;;;;8.26;64.83;100666.59;687133;28;44393;-71
2022/02/23 00:19:24;;;;;;;68.88;65.65;;;;;;;8.27;64.71;100662.88;691228;28;22388;-71
2022/02/23 00:19:45;;;;;;;58.97;56.25;;;;;;;8.28;64.86;100661.06;691203;28;20860;-71
2022/02/23 00:20:08;;;;;;;71.10;67.78;;;;;;;8.28;64.58;100659.19;690831;28;22748;-71
2022/02/23 00:20:29;;;;;;;69.70;66.40;;;;;;;8.28;64.70;100666.44;688850;28;92307;-71
2022/02/23 00:20:50;;;;;;;64.32;61.30;;;;;;;8.24;64.70;100665.06;690610;28;46548;-71
2022/02/23 00:21:11;;;;;;;74.38;70.90;;;;;;;8.26;64.69;100658.53;691181;28;22393;-71
2022/02/23 00:21:33;;;;;;;81.50;77.68;;;;;;;8.27;64.69;100673.66;690630;28;22138;-72
2022/02/23 00:21:54;;;;;;;70.15;66.88;;;;;;;8.31;64.39;100660.72;689926;28;46277;-71
2022/02/23 00:22:15;;;;;;;60.78;57.97;;;;;;;8.34;64.07;100656.84;689979;28;22394;-72
2022/02/23 00:22:37;;;;;;;69.85;66.63;;;;;;;8.35;64.25;100666.63;690303;28;21571;-72
2022/02/23 00:22:59;;;;;;;72.38;68.97;;;;;;;8.30;64.02;100651.78;690804;28;15359;-71
2022/02/23 00:23:20;;;;;;;66.05;62.95;;;;;;;8.25;63.99;100669.47;690177;28;46380;-71
2022/02/23 00:23:41;;;;;;;68.40;65.20;;;;;;;8.24;64.08;100668.59;691123;28;21523;-71
2022/02/23 00:24:05;;;;;;;70.00;66.72;;;;;;;8.26;64.33;100660.34;690705;28;23471;-71
2022/02/23 00:24:26;;;;;;;58.58;55.88;;;;;;;8.30;64.41;100648.28;688707;28;92535;-71
2022/02/23 00:24:47;;;;;;;61.65;58.83;;;;;;;8.29;64.18;100665.41;691212;28;23458;-71
2022/02/23 00:25:09;;;;;;;63.28;60.38;;;;;;;8.29;64.31;100662.72;690621;28;46281;-71
2022/02/23 00:25:31;;;;;;;61.08;58.25;;;;;;;8.29;64.05;100670.78;691134;28;23477;-71
2022/02/23 00:25:52;;;;;;;74.10;70.57;;;;;;;8.26;63.87;100676.50;687914;28;69247;-71
2022/02/23 00:26:14;;;;;;;71.53;68.15;;;;;;;8.25;64.13;100669.47;691211;28;21564;-71
2022/02/23 00:26:35;;;;;;;63.97;61.00;;;;;;;8.27;64.17;100660.19;689997;28;22401;-71
2022/02/23 00:26:57;;;;;;;72.38;68.97;;;;;;;8.26;64.26;100674.69;691206;28;21605;-71
2022/02/23 00:27:18;;;;;;;70.10;66.85;;;;;;;8.24;64.04;100673.97;690642;28;45249;-72
2022/02/23 00:27:39;;;;;;;65.00;62.00;;;;;;;8.24;64.13;100690.13;691308;28;22466;-72
2022/02/23 00:28:00;;;;;;;92.57;88.22;;;;;;;8.26;64.06;100689.94;689986;28;44422;-71
2022/02/23 00:28:22;;;;;;;92.15;87.85;;;;;;;8.31;63.89;100684.94;690899;28;22399;-71
2022/02/23 00:28:43;;;;;;;81.75;77.95;;;;;;;8.31;63.68;100682.25;690204;28;44246;-71
2022/02/23 00:29:04;;;;;;;74.93;71.43;;;;;;;8.32;63.84;100680.41;690869;28;22350;-72
2022/02/23 00:29:26;;;;;;;64.57;61.58;;;;;;;8.30;63.68;100680.56;690961;28;23468;-71
2022/02/23 00:29:48;;;;;;;74.28;70.80;;;;;;;8.26;63.85;100690.81;690273;28;46340;-71
2022/02/23 00:30:10;;;;;;;81.10;77.32;;;;;;;8.25;64.04;100653.31;691396;28;22407;-71
2022/02/23 00:30:31;;;;;;;61.08;58.28;;;;;;;8.26;64.11;100674.69;690004;28;45268;-71
2022/02/23 00:30:53;;;;;;;46.03;44.03;;;;;;;8.29;64.33;100686.94;690889;28;21337;-71
2022/02/23 00:31:14;;;;;;;66.00;62.95;;;;;;;8.30;64.01;100678.69;689700;28;69364;-71
2022/02/23 00:31:35;;;;;;;69.63;66.32;;;;;;;8.31;64.25;100698.41;690466;28;23429;-71
2022/02/23 00:31:56;;;;;;;62.53;59.63;;;;;;;8.29;63.97;100679.72;691194;28;22384;-71
2022/02/23 00:32:19;;;;;;;55.63;53.10;;;;;;;8.33;63.99;100676.72;691272;28;23475;-71
2022/02/23 00:32:40;;;;;;;47.92;45.83;;;;;;;8.28;64.00;100686.09;689277;28;69317;-72
2022/02/23 00:33:01;;;;;;;56.78;54.13;;;;;;;8.30;64.03;100708.31;690886;28;21509;-72
2022/02/23 00:33:24;;;;;;;58.55;55.85;;;;;;;8.29;63.69;100693.19;691908;28;1363;-71
2022/02/23 00:33:46;;;;;;;49.50;47.28;;;;;;;8.38;63.27;100677.06;690393;28;23490;-72
2022/02/23 00:34:07;;;;;;;42.65;40.80;;;;;;;8.49;62.55;100698.31;689936;28;46342;-71
2022/02/23 00:34:28;;;;;;;48.38;46.20;;;;;;;8.56;61.83;100687.75;690976;28;22380;-71
2022/02/23 00:34:49;;;;;;;42.72;40.85;;;;;;;8.56;61.83;100698.50;690781;28;23480;-71
2022/02/23 00:35:11;;;;;;;37.00;35.40;;;;;;;8.51;61.51;100684.69;690199;28;46120;-71
2022/02/23 00:35:33;;;;;;;49.30;47.05;;;;;;;8.44;62.06;100684.50;690532;28;44409;-71
2022/02/23 00:35:54;;;;;;;51.70;49.30;;;;;;;8.41;62.16;100690.19;690399;28;22414;-71
2022/02/23 00:36:15;;;;;;;47.22;45.10;;;;;;;8.37;62.45;100684.28;691121;28;22508;-71
2022/02/23 00:36:37;;;;;;;41.15;39.35;;;;;;;8.29;62.26;100689.63;690534;28;24192;-72
2022/02/23 00:36:58;;;;;;;59.95;57.20;;;;;;;8.25;62.58;100682.91;690090;28;44391;-71
2022/02/23 00:37:19;;;;;;;65.47;62.42;;;;;;;8.28;62.89;100696.88;688321;28;23160;-71
2022/02/23 00:37:43;;;;;;;57.63;55.03;;;;;;;8.31;62.66;100701.09;688457;28;22492;-71
2022/02/23 00:38:05;;;;;;;49.43;47.23;;;;;;;8.25;62.48;100707.13;685342;28;115104;-72
2022/02/23 00:38:30;;;;;;;45.35;43.35;;;;;;;8.24;62.86;100700.88;689461;28;69408;-71
2022/02/23 00:38:52;;;;;;;57.65;54.92;;;;;;;8.23;63.15;100693.84;683482;28;114899;-72
2022/02/23 00:39:14;;;;;;;53.78;51.35;;;;;;;8.21;63.00;100700.38;684023;28;22398;-71
2022/02/23 00:39:36;;;;;;;46.60;44.60;;;;;;;8.16;63.07;100703.53;683389;28;46449;-72
2022/02/23 00:39:57;;;;;;;53.42;51.00;;;;;;;8.18;63.26;100687.25;683370;28;44391;-71
2022/02/23 00:40:18;;;;;;;55.17;52.67;;;;;;;8.22;63.37;100700.22;684400;28;22411;-71
2022/02/23 00:40:39;;;;;;;46.25;44.20;;;;;;;8.22;63.10;100702.06;683873;28;46544;-71
2022/02/23 00:41:01;;;;;;;41.58;39.78;;;;;;;8.20;63.39;100698.72;688529;28;23728;-71
2022/02/23 00:41:23;;;;;;;48.50;46.30;;;;;;;8.19;63.06;100703.22;688965;28;45252;-71
2022/02/23 00:41:44;;;;;;;49.20;47.00;;;;;;;8.18;63.00;100698.00;691073;28;22424;-71
2022/02/23 00:42:05;;;;;;;43.92;42.00;;;;;;;8.21;63.10;100705.75;691108;28;23545;-71
2022/02/23 00:42:37;;;;;;;53.90;51.45;;;;;;;8.20;62.59;100699.53;688701;28;97463;-71
2022/02/23 00:42:58;;;;;;;51.42;49.13;;;;;;;8.19;62.60;100707.78;690017;28;45268;-71
2022/02/23 00:43:19;;;;;;;46.92;44.83;;;;;;;8.15;62.56;100701.88;690822;28;23485;-72
2022/02/23 00:43:40;;;;;;;44.45;42.50;;;;;;;8.10;62.86;100714.94;687909;28;22413;-71
2022/02/23 00:44:02;;;;;;;49.13;46.83;;;;;;;8.13;63.04;100720.00;687049;28;44252;-71
2022/02/23 00:44:24;;;;;;;41.92;40.03;;;;;;;8.20;62.78;100702.22;688261;28;23477;-71
2022/02/23 00:44:45;;;;;;;49.47;47.22;;;;;;;8.19;62.49;100699.69;687370;28;46308;-71
2022/02/23 00:45:06;;;;;;;52.22;49.88;;;;;;;8.15;62.44;100720.72;688360;28;22392;-71
2022/02/23 00:45:28;;;;;;;46.60;44.50;;;;;;;8.16;62.84;100711.63;687500;28;45022;-71
2022/02/23 00:45:50;;;;;;;44.67;42.65;;;;;;;8.15;62.68;100707.25;687331;28;23736;-71
2022/02/23 00:46:11;;;;;;;53.38;50.90;;;;;;;8.15;62.78;100712.66;687106;28;45232;-71
2022/02/23 00:46:32;;;;;;;48.47;46.28;;;;;;;8.16;62.92;100710.78;686358;28;45242;-72
2022/02/23 00:46:54;;;;;;;53.05;50.63;;;;;;;8.18;62.86;100706.94;688268;28;22404;-71
2022/02/23 00:47:16;;;;;;;65.80;62.70;;;;;;;8.20;62.91;100717.53;688328;28;21543;-71
2022/02/23 00:47:37;;;;;;;58.15;55.45;;;;;;;8.18;62.98;100716.84;687141;28;45098;-71
2022/02/23 00:47:58;;;;;;;51.30;48.95;;;;;;;8.16;62.96;100722.38;690571;28;22390;-71
2022/02/23 00:48:19;;;;;;;46.25;44.17;;;;;;;8.17;62.88;100716.00;690486;28;21545;-71
2022/02/23 00:48:41;;;;;;;57.38;54.75;;;;;;;8.18;62.77;100708.78;690691;28;23470;-72
2022/02/23 00:49:02;;;;;;;58.40;55.70;;;;;;;8.19;63.05;100718.53;685745;28;46636;-71
2022/02/23 00:49:23;;;;;;;53.22;50.83;;;;;;;8.17;62.90;100725.94;686985;28;21700;-71
2022/02/23 00:49:45;;;;;;;46.25;44.20;;;;;;;8.18;62.71;100722.22;686697;28;23567;-71
2022/02/23 00:50:07;;;;;;;54.13;51.67;;;;;;;8.15;62.97;100723.41;686219;28;44173;-71
2022/02/23 00:50:28;;;;;;;57.88;55.22;;;;;;;8.14;62.96;100710.94;685666;28;46563;-71
2022/02/23 00:50:49;;;;;;;51.42;49.13;;;;;;;8.12;62.90;100726.41;687490;28;23401;-72
2022/02/23 00:51:10;;;;;;;45.53;43.53;;;;;;;8.12;62.76;100721.88;690633;28;23616;-72
2022/02/23 00:51:33;;;;;;;55.95;53.38;;;;;;;8.16;62.75;100729.63;689413;28;46309;-72
2022/02/23 00:51:55;;;;;;;54.75;52.25;;;;;;;8.16;62.87;100721.53;690379;28;46306;-72
2022/02/23 00:52:16;;;;;;;49.75;47.53;;;;;;;8.20;62.89;100731.00;688517;28;44380;-72
2022/02/23 00:52:37;;;;;;;45.35;43.35;;;;;;;8.34;62.21;100729.50;689185;28;21262;-71
2022/02/23 00:52:59;;;;;;;51.17;48.87;;;;;;;8.40;61.80;100751.25;688289;28;21436;-71
2022/02/23 00:53:20;;;;;;;48.63;46.42;;;;;;;8.37;61.50;100740.81;688903;28;45423;-71
2022/02/23 00:53:44;;;;;;;45.10;43.08;;;;;;;8.29;61.47;100738.94;689074;28;36395;-71
2022/02/23 00:54:06;;;;;;;67.63;64.45;;;;;;;8.23;61.70;100734.19;689994;28;22427;-71
2022/02/23 00:54:29;;;;;;;73.20;69.80;;;;;;;8.24;61.95;100738.56;691098;28;22412;-71
2022/02/23 00:54:50;;;;;;;63.45;60.45;;;;;;;8.25;61.94;100752.88;689258;28;69797;-71
2022/02/23 00:55:16;;;;;;;53.53;51.10;;;;;;;8.28;61.65;100737.22;691884;28;21228;-71
2022/02/23 00:55:43;;;;;;;43.83;41.92;;;;;;;8.21;61.70;100741.59;687157;28;136621;-71
2022/02/23 00:56:11;;;;;;;62.42;59.45;;;;;;;8.17;61.60;100744.75;686602;28;138133;-71
2022/02/23 00:56:32;;;;;;;58.30;55.53;;;;;;;8.14;61.89;100755.84;673606;28;137812;-71
2022/02/23 00:57:07;;;;;;;41.55;39.67;;;;;;;8.17;62.09;100744.75;689474;28;60179;-72
2022/02/23 00:57:28;;;;;;;52.15;49.75;;;;;;;8.17;62.20;100763.59;686572;28;136462;-71
2022/02/23 00:57:49;;;;;;;52.17;49.80;;;;;;;8.23;62.37;100774.56;690566;28;22394;-71
2022/02/23 00:58:10;;;;;;;44.55;42.58;;;;;;;8.27;61.71;100762.44;690501;28;21314;-71
2022/02/23 00:58:32;;;;;;;48.95;46.75;;;;;;;8.23;61.70;100771.03;690684;28;22380;-71
2022/02/23 00:58:53;;;;;;;50.47;48.22;;;;;;;8.19;61.67;100769.66;690170;28;45258;-72
2022/02/23 00:59:15;;;;;;;47.35;45.25;;;;;;;8.27;61.63;100780.44;690986;28;21561;-71
2022/02/23 00:59:36;;;;;;;57.95;55.30;;;;;;;8.21;61.31;100765.81;690388;28;45240;-71
2022/02/23 00:59:58;;;;;;;54.15;51.67;;;;;;;8.17;61.51;100783.25;691326;28;22411;-71
2022/02/23 01:00:20;;;;;;;47.40;45.30;;;;;;;8.16;61.68;100776.19;689303;28;69425;-71
2022/02/23 01:00:41;;;;;;;51.78;49.47;;;;;;;8.15;61.52;100784.41;690150;28;44458;-71
2022/02/23 01:01:10;;;;;;;55.20;52.70;;;;;;;8.09;61.91;100785.91;690725;28;21550;-72
2022/02/23 01:01:33;;;;;;;47.67;45.38;;;;;;;8.07;61.99;100778.00;675699;28;138058;-71
2022/02/23 01:01:55;;;;;;;59.08;56.28;;;;;;;8.09;62.31;100786.75;687098;28;69907;-71
2022/02/23 01:02:16;;;;;;;58.10;55.40;;;;;;;8.07;62.22;100783.38;688975;28;44361;-72
2022/02/23 01:02:39;;;;;;;50.23;47.93;;;;;;;8.08;62.66;100781.53;688416;28;46229;-71
2022/02/23 01:03:00;;;;;;;51.88;49.50;;;;;;;8.07;62.43;100788.78;687615;28;67160;-71
2022/02/23 01:03:21;;;;;;;63.00;60.10;;;;;;;8.08;62.48;100789.59;689728;28;21556;-72
2022/02/23 01:03:43;;;;;;;56.42;53.88;;;;;;;8.07;62.59;100777.16;689727;28;22377;-71
2022/02/23 01:04:04;;;;;;;48.40;46.22;;;;;;;8.07;62.75;100791.47;689690;28;46287;-71
2022/02/23 01:04:25;;;;;;;56.38;53.78;;;;;;;8.09;63.12;100788.59;690726;28;23503;-71
2022/02/23 01:04:47;;;;;;;56.88;54.25;;;;;;;8.11;63.09;100787.44;690799;28;22386;-71
2022/02/23 01:05:08;;;;;;;50.08;47.78;;;;;;;8.11;62.82;100786.59;690078;28;46275;-72
2022/02/23 01:05:29;;;;;;;49.80;47.60;;;;;;;8.09;62.69;100794.81;691223;28;23389;-71
2022/02/23 01:05:50;;;;;;;49.42;47.22;;;;;;;8.07;62.88;100790.59;690567;28;22452;-72
2022/02/23 01:06:13;;;;;;;34.38;32.88;;;;;;;8.06;62.74;100786.25;690318;28;46328;-71
2022/02/23 01:06:34;;;;;;;25.50;24.50;;;;;;;8.05;63.01;100796.13;689400;28;45252;-71
2022/02/23 01:06:55;;;;;;;33.65;32.20;;;;;;;8.07;63.15;100787.91;689853;28;44456;-71
2022/02/23 01:07:16;;;;;;;46.83;44.75;;;;;;;8.09;63.04;100794.00;690765;28;23265;-71
2022/02/23 01:07:38;;;;;;;39.70;38.00;;;;;;;8.06;62.80;100797.81;690273;28;21519;-72
2022/02/23 01:07:59;;;;;;;33.83;32.42;;;;;;;8.05;62.93;100798.81;690040;28;45265;-71
2022/02/23 01:08:20;;;;;;;28.70;27.50;;;;;;;8.05;63.11;100789.91;690915;28;23464;-71
2022/02/23 01:08:41;;;;;;;25.70;24.60;;;;;;;8.04;63.03;100780.16;690573;28;23112;-71
2022/02/23 01:09:04;;;;;;;35.13;33.60;;;;;;;8.05;63.07;100789.91;690547;28;22353;-70
2022/02/23 01:09:26;;;;;;;34.25;32.75;;;;;;;8.04;63.06;100789.09;689347;28;69421;-71
2022/02/23 01:09:49;;;;;;;41.90;40.00;;;;;;;8.03;63.06;100794.63;689771;28;46373;-71
2022/02/23 01:10:10;;;;;;;46.15;44.03;;;;;;;8.00;63.15;100776.13;689314;28;67156;-72
2022/02/23 01:10:32;;;;;;;66.93;63.83;;;;;;;7.98;62.94;100788.84;690808;28;24180;-71
2022/02/23 01:10:53;;;;;;;69.60;66.30;;;;;;;7.97;63.31;100788.03;689774;28;46430;-71
2022/02/23 01:11:16;;;;;;;61.85;58.92;;;;;;;7.96;63.37;100791.69;691061;28;21396;-71
2022/02/23 01:11:37;;;;;;;52.63;50.22;;;;;;;7.98;63.38;100791.53;685673;28;89071;-72
2022/02/23 01:11:59;;;;;;;46.58;44.47;;;;;;;7.96;63.23;100798.94;689437;28;22372;-70
2022/02/23 01:12:20;;;;;;;53.20;50.80;;;;;;;7.95;63.16;100798.09;688813;28;44384;-71
2022/02/23 01:12:41;;;;;;;51.45;49.15;;;;;;;7.96;63.41;100789.00;688502;28;22403;-71
2022/02/23 01:13:03;;;;;;;46.05;44.05;;;;;;;7.94;63.09;100789.16;689042;28;21402;-71
2022/02/23 01:13:25;;;;;;;54.22;51.75;;;;;;;7.92;62.96;100782.28;690194;28;2268;-71
2022/02/23 01:13:46;;;;;;;54.40;51.95;;;;;;;7.90;62.88;100785.13;690391;28;45260;-71
2022/02/23 01:14:08;;;;;;;47.78;45.67;;;;;;;7.90;63.14;100790.50;691293;28;22392;-71
2022/02/23 01:14:30;;;;;;;48.58;46.40;;;;;;;7.90;63.15;100798.56;685679;28;46393;-71
2022/02/23 01:14:51;;;;;;;60.30;57.53;;;;;;;7.90;62.92;100787.00;685873;28;46244;-71
2022/02/23 01:15:12;;;;;;;54.33;51.90;;;;;;;7.88;63.03;100794.34;686998;28;21521;-71
2022/02/23 01:15:33;;;;;;;48.28;46.15;;;;;;;7.88;63.29;100792.53;686995;28;22430;-71
2022/02/23 01:15:55;;;;;;;59.08;56.33;;;;;;;7.88;63.25;100795.22;686238;28;22401;-70
2022/02/23 01:16:17;;;;;;;60.45;57.67;;;;;;;7.86;62.96;100796.38;685975;28;45170;-72
2022/02/23 01:16:38;;;;;;;52.83;50.43;;;;;;;7.86;63.20;100802.56;690575;28;23555;-72
2022/02/23 01:16:59;;;;;;;40.03;38.30;;;;;;;7.86;63.12;100791.81;685679;28;46342;-71
2022/02/23 01:17:21;;;;;;;39.90;38.17;;;;;;;7.86;63.14;100794.50;686672;28;22414;-71
2022/02/23 01:17:42;;;;;;;47.38;45.28;;;;;;;7.86;63.39;100793.66;685705;28;44400;-71
2022/02/23 01:18:03;;;;;;;41.53;39.72;;;;;;;7.86;63.26;100799.88;686714;28;21574;-71
2022/02/23 01:18:25;;;;;;;36.10;34.60;;;;;;;7.86;63.47;100805.25;686434;28;22405;-71
2022/02/23 01:18:46;;;;;;;42.10;40.28;;;;;;;7.85;63.26;100800.91;687032;28;43714;-70
2022/02/23 01:19:07;;;;;;;38.50;36.85;;;;;;;7.85;63.46;100802.72;690734;28;23469;-71
2022/02/23 01:19:28;;;;;;;31.98;30.65;;;;;;;7.84;63.26;100801.06;690441;28;22447;-71
2022/02/23 01:19:50;;;;;;;49.35;47.10;;;;;;;7.85;63.38;100802.72;690692;28;22381;-71
2022/02/23 01:20:12;;;;;;;54.83;52.33;;;;;;;7.87;63.61;100806.97;690078;28;45426;-71
2022/02/23 01:20:33;;;;;;;47.03;44.95;;;;;;;7.88;63.63;100805.09;690896;28;22412;-71
2022/02/23 01:20:54;;;;;;;39.78;38.08;;;;;;;7.88;63.49;100800.59;687437;28;46594;-71
2022/02/23 01:21:16;;;;;;;32.85;31.45;;;;;;;7.87;63.40;100804.28;688303;28;22410;-71
2022/02/23 01:21:37;;;;;;;34.47;33.00;;;;;;;7.89;63.38;100804.13;685775;28;66681;-72
2022/02/23 01:21:58;;;;;;;43.38;41.47;;;;;;;7.88;63.29;100805.97;688344;28;22399;-71
2022/02/23 01:22:19;;;;;;;39.45;37.75;;;;;;;7.86;63.30;100804.44;685486;28;23425;-71
2022/02/23 01:22:41;;;;;;;40.33;38.60;;;;;;;7.86;63.55;100799.06;685616;28;22385;-71
2022/02/23 01:23:02;;;;;;;48.35;46.15;;;;;;;7.83;63.31;100807.44;688395;28;44402;-71
2022/02/23 01:23:24;;;;;;;45.42;43.42;;;;;;;7.82;63.53;100803.91;690940;28;22307;-71
2022/02/23 01:23:45;;;;;;;43.58;41.63;;;;;;;7.82;63.55;100813.81;690994;28;22416;-71
2022/02/23 01:24:07;;;;;;;47.53;45.42;;;;;;;7.81;63.56;100802.22;691146;28;23461;-71
2022/02/23 01:24:28;;;;;;;42.55;40.70;;;;;;;7.81;63.69;100804.91;689257;28;67503;-71
2022/02/23 01:24:50;;;;;;;47.67;45.53;;;;;;;7.82;63.64;100808.41;691068;28;22362;-71
2022/02/23 01:25:12;;;;;;;54.47;51.97;;;;;;;7.81;63.51;100798.69;690340;28;46349;-71
2022/02/23 01:25:34;;;;;;;50.20;47.92;;;;;;;7.79;63.63;100806.91;690149;28;44435;-71
2022/02/23 01:25:55;;;;;;;45.17;43.17;;;;;;;7.80;63.56;100805.06;689896;28;22399;-71
2022/02/23 01:26:16;;;;;;;48.97;46.78;;;;;;;7.77;63.39;100800.81;691413;28;18881;-71
2022/02/23 01:26:38;;;;;;;70.38;67.07;;;;;;;7.76;63.24;100801.84;688628;28;66675;-71
2022/02/23 01:26:59;;;;;;;63.08;60.17;;;;;;;7.78;63.36;100807.06;689815;28;44390;-71
2022/02/23 01:27:20;;;;;;;56.45;53.90;;;;;;;7.80;63.74;100802.38;690864;28;22359;-72
2022/02/23 01:27:41;;;;;;;49.00;46.83;;;;;;;7.81;63.57;100810.28;690719;28;21555;-71
2022/02/23 01:28:06;;;;;;;40.45;38.67;;;;;;;7.82;63.58;100803.03;690977;28;22393;-71
2022/02/23 01:28:28;;;;;;;51.97;49.63;;;;;;;7.81;63.26;100809.44;687739;28;114835;-71
2022/02/23 01:28:49;;;;;;;50.42;48.17;;;;;;;7.80;63.29;100810.44;690245;28;46650;-71
2022/02/23 01:29:10;;;;;;;43.00;41.10;;;;;;;7.76;63.36;100804.53;691123;28;22621;-71
2022/02/23 01:29:32;;;;;;;52.75;50.38;;;;;;;7.81;63.55;100809.44;690601;28;22390;-72
2022/02/23 01:29:55;;;;;;;54.92;52.42;;;;;;;7.78;63.34;100807.91;690029;28;46376;-71
2022/02/23 01:30:17;;;;;;;48.97;46.78;;;;;;;7.79;63.42;100811.41;689491;28;69652;-71
2022/02/23 01:30:38;;;;;;;46.17;44.15;;;;;;;7.78;63.72;100809.75;690693;28;22227;-71
2022/02/23 01:31:02;;;;;;;56.78;54.17;;;;;;;7.81;63.66;100809.44;689807;28;45336;-71
2022/02/23 01:31:28;;;;;;;51.15;48.85;;;;;;;7.79;63.49;100808.72;687134;28;92026;-72
2022/02/23 01:31:55;;;;;;;43.15;41.17;;;;;;;7.78;63.35;100809.75;689755;28;61598;-71
2022/02/23 01:32:16;;;;;;;67.63;64.43;;;;;;;7.74;63.28;100806.50;688880;28;92316;-71
2022/02/23 01:32:38;;;;;;;70.75;67.43;;;;;;;7.77;63.47;100808.88;690651;28;22399;-71
2022/02/23 01:33:00;;;;;;;62.67;59.78;;;;;;;7.80;63.64;100823.88;690055;28;44768;-71
2022/02/23 01:33:21;;;;;;;54.95;52.45;;;;;;;7.82;63.65;100830.81;690797;28;22460;-71
2022/02/23 01:33:42;;;;;;;48.20;46.05;;;;;;;7.84;63.29;100815.34;691263;28;21475;-71
2022/02/23 01:34:04;;;;;;;55.00;52.50;;;;;;;7.83;63.21;100810.97;690706;28;22406;-71
2022/02/23 01:34:25;;;;;;;65.15;62.13;;;;;;;7.84;63.17;100822.56;689339;28;67401;-71
2022/02/23 01:34:46;;;;;;;57.13;54.50;;;;;;;7.83;63.13;100831.63;691295;28;22407;-71
2022/02/23 01:35:09;;;;;;;52.17;49.80;;;;;;;7.83;62.94;100824.41;691083;28;22489;-72
2022/02/23 01:35:36;;;;;;;49.30;47.05;;;;;;;7.81;63.05;100825.56;689126;28;69474;-71
2022/02/23 01:36:21;;;;;;;62.63;59.63;;;;;;;7.81;63.22;100825.56;686410;28;138137;-72
2022/02/23 01:36:50;;;;;;;49.67;47.42;;;;;;;7.81;63.18;100831.78;685388;28;157182;-72
2022/02/23 01:37:13;;;;;;;75.35;71.70;;;;;;;7.84;63.29;100823.41;686131;28;157294;-71
2022/02/23 01:37:36;;;;;;;66.80;63.60;;;;;;;7.85;63.12;100830.47;689339;28;68244;-71
2022/02/23 01:38:01;;;;;;;56.90;54.28;;;;;;;7.85;63.07;100838.56;687426;28;123604;-72
2022/02/23 01:38:22;;;;;;;52.33;49.95;;;;;;;7.83;62.84;100829.78;690129;28;46746;-71
2022/02/23 01:38:43;;;;;;;49.20;47.00;;;;;;;7.82;63.02;100828.09;687124;28;45235;-71
2022/02/23 01:39:04;;;;;;;55.72;53.17;;;;;;;7.87;62.79;100841.09;687512;28;44440;-71
2022/02/23 01:39:26;;;;;;;48.22;46.08;;;;;;;7.85;62.54;100830.47;687995;28;22229;-71
2022/02/23 01:39:58;;;;;;;42.78;40.88;;;;;;;7.81;62.27;100841.72;685347;28;97006;-71
2022/02/23 01:40:21;;;;;;;46.80;44.70;;;;;;;7.78;62.31;100833.97;687213;28;45276;-71
2022/02/23 01:40:42;;;;;;;41.53;39.72;;;;;;;7.76;62.53;100837.63;689149;28;46428;-71
2022/02/23 01:41:04;;;;;;;51.20;48.90;;;;;;;7.77;62.54;100841.16;690712;28;22387;-72
2022/02/23 01:41:25;;;;;;;51.65;49.35;;;;;;;7.77;62.79;100830.41;688830;28;69482;-71
2022/02/23 01:41:46;;;;;;;46.63;44.53;;;;;;;7.78;62.79;100839.34;691013;28;22350;-71